sensor_id;sensor_type;location;lat;lon;timestamp;temperature;humidity
50560;DHT22;36510;52.610;13.468;2022-07-05T00:04:18;19.60;31.50
50560;DHT22;36510;52.610;13.468;2022-07-05T00:09:08;19.40;31.10
50560;DHT22;36510;52.610;13.468;2022-07-05T00:13:59;19.30;31.40
50560;DHT22;36510;52.610;13.468;2022-07-05T00:18:49;19.20;32.10
50560;DHT22;36510;52.610;13.468;2022-07-05T00:23:40;19.10;33.10
50560;DHT22;36510;52.610;13.468;2022-07-05T00:28:30;19.00;33.00
50560;DHT22;36510;52.610;13.468;2022-07-05T00:33:21;19.00;33.50
50560;DHT22;36510;52.610;13.468;2022-07-05T00:38:11;19.00;33.50
50560;DHT22;36510;52.610;13.468;2022-07-05T00:43:02;18.90;33.40
50560;DHT22;36510;52.610;13.468;2022-07-05T00:47:52;19.00;33.20
50560;DHT22;36510;52.610;13.468;2022-07-05T00:52:43;18.90;33.50
50560;DHT22;36510;52.610;13.468;2022-07-05T00:57:34;18.70;34.30
50560;DHT22;36510;52.610;13.468;2022-07-05T01:02:24;18.70;34.40
50560;DHT22;36510;52.610;13.468;2022-07-05T01:07:19;18.60;34.30
50560;DHT22;36510;52.610;13.468;2022-07-05T01:12:10;18.50;34.20
50560;DHT22;36510;52.610;13.468;2022-07-05T01:17:01;18.60;34.20
50560;DHT22;36510;52.610;13.468;2022-07-05T01:21:52;18.60;34.30
50560;DHT22;36510;52.610;13.468;2022-07-05T01:26:44;18.60;34.20
50560;DHT22;36510;52.610;13.468;2022-07-05T01:31:39;18.60;34.30
50560;DHT22;36510;52.610;13.468;2022-07-05T01:36:30;18.50;34.70
50560;DHT22;36510;52.610;13.468;2022-07-05T01:41:21;18.50;34.20
50560;DHT22;36510;52.610;13.468;2022-07-05T01:46:12;18.50;34.50
50560;DHT22;36510;52.610;13.468;2022-07-05T01:51:23;18.50;34.10
50560;DHT22;36510;52.610;13.468;2022-07-05T01:56:14;18.40;35.10
50560;DHT22;36510;52.610;13.468;2022-07-05T02:01:05;18.30;35.20
50560;DHT22;36510;52.610;13.468;2022-07-05T02:05:55;18.20;35.20
50560;DHT22;36510;52.610;13.468;2022-07-05T02:10:46;18.10;35.70
50560;DHT22;36510;52.610;13.468;2022-07-05T02:15:39;18.10;35.90
50560;DHT22;36510;52.610;13.468;2022-07-05T02:20:31;18.00;36.20
50560;DHT22;36510;52.610;13.468;2022-07-05T02:25:21;18.00;35.80
50560;DHT22;36510;52.610;13.468;2022-07-05T02:30:12;17.90;35.60
50560;DHT22;36510;52.610;13.468;2022-07-05T02:35:04;17.90;35.50
50560;DHT22;36510;52.610;13.468;2022-07-05T02:39:55;17.90;35.70
50560;DHT22;36510;52.610;13.468;2022-07-05T02:44:45;17.90;35.40
50560;DHT22;36510;52.610;13.468;2022-07-05T02:49:36;17.90;35.40
50560;DHT22;36510;52.610;13.468;2022-07-05T02:54:26;17.80;34.90
50560;DHT22;36510;52.610;13.468;2022-07-05T02:59:17;17.80;35.60
50560;DHT22;36510;52.610;13.468;2022-07-05T03:04:07;17.80;35.20
50560;DHT22;36510;52.610;13.468;2022-07-05T03:09:00;17.70;35.40
50560;DHT22;36510;52.610;13.468;2022-07-05T03:13:50;17.70;35.10
50560;DHT22;36510;52.610;13.468;2022-07-05T03:18:41;17.70;35.40
50560;DHT22;36510;52.610;13.468;2022-07-05T03:23:31;17.70;35.40
50560;DHT22;36510;52.610;13.468;2022-07-05T03:28:21;17.60;35.80
50560;DHT22;36510;52.610;13.468;2022-07-05T03:33:12;17.60;36.30
50560;DHT22;36510;52.610;13.468;2022-07-05T03:38:02;17.60;36.20
50560;DHT22;36510;52.610;13.468;2022-07-05T03:42:53;17.60;36.70
50560;DHT22;36510;52.610;13.468;2022-07-05T03:47:43;17.60;36.70
50560;DHT22;36510;52.610;13.468;2022-07-05T03:52:34;17.60;37.10
50560;DHT22;36510;52.610;13.468;2022-07-05T03:57:24;17.60;36.90
50560;DHT22;36510;52.610;13.468;2022-07-05T04:02:15;17.60;36.80
50560;DHT22;36510;52.610;13.468;2022-07-05T04:07:05;17.80;37.20
50560;DHT22;36510;52.610;13.468;2022-07-05T04:11:56;17.90;37.40
50560;DHT22;36510;52.610;13.468;2022-07-05T04:16:46;18.00;37.70
50560;DHT22;36510;52.610;13.468;2022-07-05T04:21:37;18.10;38.00
50560;DHT22;36510;52.610;13.468;2022-07-05T04:26:27;18.20;37.80
50560;DHT22;36510;52.610;13.468;2022-07-05T04:31:18;18.30;37.50
50560;DHT22;36510;52.610;13.468;2022-07-05T04:36:08;18.40;37.30
50560;DHT22;36510;52.610;13.468;2022-07-05T04:40:59;18.50;37.60
50560;DHT22;36510;52.610;13.468;2022-07-05T04:45:49;18.70;37.40
50560;DHT22;36510;52.610;13.468;2022-07-05T04:50:40;18.90;37.30
50560;DHT22;36510;52.610;13.468;2022-07-05T04:55:30;18.90;37.10
50560;DHT22;36510;52.610;13.468;2022-07-05T05:00:21;19.00;36.90
50560;DHT22;36510;52.610;13.468;2022-07-05T05:05:11;19.20;36.70
50560;DHT22;36510;52.610;13.468;2022-07-05T05:10:02;19.20;34.80
50560;DHT22;36510;52.610;13.468;2022-07-05T05:14:52;19.30;35.10
50560;DHT22;36510;52.610;13.468;2022-07-05T05:19:43;19.50;34.00
50560;DHT22;36510;52.610;13.468;2022-07-05T05:24:34;19.60;33.10
50560;DHT22;36510;52.610;13.468;2022-07-05T05:29:25;19.80;32.90
50560;DHT22;36510;52.610;13.468;2022-07-05T05:34:15;19.80;31.70
50560;DHT22;36510;52.610;13.468;2022-07-05T05:39:06;19.90;31.70
50560;DHT22;36510;52.610;13.468;2022-07-05T05:43:56;20.10;31.80
50560;DHT22;36510;52.610;13.468;2022-07-05T05:48:47;20.30;31.30
50560;DHT22;36510;52.610;13.468;2022-07-05T05:53:37;20.50;31.10
50560;DHT22;36510;52.610;13.468;2022-07-05T05:58:28;20.70;30.80
50560;DHT22;36510;52.610;13.468;2022-07-05T06:03:19;20.80;29.30
50560;DHT22;36510;52.610;13.468;2022-07-05T06:08:10;20.70;28.30
50560;DHT22;36510;52.610;13.468;2022-07-05T06:13:07;20.60;28.70
50560;DHT22;36510;52.610;13.468;2022-07-05T06:17:58;20.70;27.90
50560;DHT22;36510;52.610;13.468;2022-07-05T06:22:48;20.80;27.80
50560;DHT22;36510;52.610;13.468;2022-07-05T06:27:45;21.00;26.60
50560;DHT22;36510;52.610;13.468;2022-07-05T06:32:36;21.40;25.80
50560;DHT22;36510;52.610;13.468;2022-07-05T06:37:27;22.20;23.10
50560;DHT22;36510;52.610;13.468;2022-07-05T06:42:17;23.00;22.30
50560;DHT22;36510;52.610;13.468;2022-07-05T06:47:08;23.70;20.40
50560;DHT22;36510;52.610;13.468;2022-07-05T06:51:58;24.40;17.90
50560;DHT22;36510;52.610;13.468;2022-07-05T06:56:49;25.00;17.70
50560;DHT22;36510;52.610;13.468;2022-07-05T07:01:39;25.70;14.80
50560;DHT22;36510;52.610;13.468;2022-07-05T07:06:30;26.10;15.00
50560;DHT22;36510;52.610;13.468;2022-07-05T07:11:20;26.60;13.10
50560;DHT22;36510;52.610;13.468;2022-07-05T07:16:10;26.80;12.40
50560;DHT22;36510;52.610;13.468;2022-07-05T07:21:01;27.10;11.90
50560;DHT22;36510;52.610;13.468;2022-07-05T07:25:51;27.00;12.30
50560;DHT22;36510;52.610;13.468;2022-07-05T07:30:42;26.30;11.90
50560;DHT22;36510;52.610;13.468;2022-07-05T07:35:32;25.20;14.60
50560;DHT22;36510;52.610;13.468;2022-07-05T07:40:23;24.30;15.90
50560;DHT22;36510;52.610;13.468;2022-07-05T07:45:13;24.00;16.50
50560;DHT22;36510;52.610;13.468;2022-07-05T07:50:04;23.80;17.10
50560;DHT22;36510;52.610;13.468;2022-07-05T07:54:56;23.60;17.70
50560;DHT22;36510;52.610;13.468;2022-07-05T07:59:46;23.60;18.40
50560;DHT22;36510;52.610;13.468;2022-07-05T08:04:37;23.50;17.60
50560;DHT22;36510;52.610;13.468;2022-07-05T08:09:27;23.60;17.00
50560;DHT22;36510;52.610;13.468;2022-07-05T08:14:18;23.50;16.50
50560;DHT22;36510;52.610;13.468;2022-07-05T08:19:09;23.60;18.10
50560;DHT22;36510;52.610;13.468;2022-07-05T08:24:18;23.70;18.70
50560;DHT22;36510;52.610;13.468;2022-07-05T08:29:10;23.80;17.70
50560;DHT22;36510;52.610;13.468;2022-07-05T08:34:02;23.80;18.00
50560;DHT22;36510;52.610;13.468;2022-07-05T08:38:53;23.80;17.30
50560;DHT22;36510;52.610;13.468;2022-07-05T08:43:45;23.80;17.80
50560;DHT22;36510;52.610;13.468;2022-07-05T08:48:41;23.90;18.70
50560;DHT22;36510;52.610;13.468;2022-07-05T08:53:34;24.10;17.80
50560;DHT22;36510;52.610;13.468;2022-07-05T08:58:24;24.10;16.60
50560;DHT22;36510;52.610;13.468;2022-07-05T09:03:16;24.20;17.50
50560;DHT22;36510;52.610;13.468;2022-07-05T09:08:10;24.20;17.40
50560;DHT22;36510;52.610;13.468;2022-07-05T09:13:03;24.30;17.80
50560;DHT22;36510;52.610;13.468;2022-07-05T09:17:54;24.40;17.80
50560;DHT22;36510;52.610;13.468;2022-07-05T09:22:55;24.60;18.10
50560;DHT22;36510;52.610;13.468;2022-07-05T09:27:53;24.50;17.80
50560;DHT22;36510;52.610;13.468;2022-07-05T09:32:44;24.70;16.90
50560;DHT22;36510;52.610;13.468;2022-07-05T09:37:43;24.90;16.80
50560;DHT22;36510;52.610;13.468;2022-07-05T09:42:34;24.90;16.80
50560;DHT22;36510;52.610;13.468;2022-07-05T09:47:27;25.20;17.90
50560;DHT22;36510;52.610;13.468;2022-07-05T09:57:25;25.40;15.20
50560;DHT22;36510;52.610;13.468;2022-07-05T10:02:33;25.50;16.10
50560;DHT22;36510;52.610;13.468;2022-07-05T10:07:30;25.70;14.00
50560;DHT22;36510;52.610;13.468;2022-07-05T10:12:21;25.70;16.30
50560;DHT22;36510;52.610;13.468;2022-07-05T10:17:12;25.90;13.70
50560;DHT22;36510;52.610;13.468;2022-07-05T10:22:03;26.00;15.70
50560;DHT22;36510;52.610;13.468;2022-07-05T10:26:55;26.40;15.60
50560;DHT22;36510;52.610;13.468;2022-07-05T10:31:45;26.50;14.10
50560;DHT22;36510;52.610;13.468;2022-07-05T10:36:38;26.70;12.60
50560;DHT22;36510;52.610;13.468;2022-07-05T10:41:30;26.60;11.60
50560;DHT22;36510;52.610;13.468;2022-07-05T10:46:36;26.50;12.60
50560;DHT22;36510;52.610;13.468;2022-07-05T10:51:27;26.30;12.50
50560;DHT22;36510;52.610;13.468;2022-07-05T10:56:18;26.10;12.70
50560;DHT22;36510;52.610;13.468;2022-07-05T11:06:03;25.70;14.90
50560;DHT22;36510;52.610;13.468;2022-07-05T11:11:13;25.90;12.10
50560;DHT22;36510;52.610;13.468;2022-07-05T11:16:20;26.30;13.40
50560;DHT22;36510;52.610;13.468;2022-07-05T11:21:22;26.60;10.80
50560;DHT22;36510;52.610;13.468;2022-07-05T11:26:13;26.50;11.70
50560;DHT22;36510;52.610;13.468;2022-07-05T11:31:05;26.20;10.80
50560;DHT22;36510;52.610;13.468;2022-07-05T11:35:56;26.20;12.00
50560;DHT22;36510;52.610;13.468;2022-07-05T11:40:47;26.40;11.50
50560;DHT22;36510;52.610;13.468;2022-07-05T11:45:38;26.50;12.20
50560;DHT22;36510;52.610;13.468;2022-07-05T11:50:34;26.40;11.80
50560;DHT22;36510;52.610;13.468;2022-07-05T11:55:26;26.20;11.20
50560;DHT22;36510;52.610;13.468;2022-07-05T12:00:28;26.30;9.70
50560;DHT22;36510;52.610;13.468;2022-07-05T12:05:18;26.50;9.70
50560;DHT22;36510;52.610;13.468;2022-07-05T12:10:09;26.40;11.00
50560;DHT22;36510;52.610;13.468;2022-07-05T12:15:20;26.70;11.00
50560;DHT22;36510;52.610;13.468;2022-07-05T12:20:13;26.60;9.80
50560;DHT22;36510;52.610;13.468;2022-07-05T12:25:06;26.50;9.80
50560;DHT22;36510;52.610;13.468;2022-07-05T12:30:00;26.60;9.10
50560;DHT22;36510;52.610;13.468;2022-07-05T12:34:54;26.60;9.20
50560;DHT22;36510;52.610;13.468;2022-07-05T12:39:44;26.90;9.40
50560;DHT22;36510;52.610;13.468;2022-07-05T12:44:35;26.80;8.70
50560;DHT22;36510;52.610;13.468;2022-07-05T12:49:25;26.70;9.50
50560;DHT22;36510;52.610;13.468;2022-07-05T12:54:21;26.80;9.90
50560;DHT22;36510;52.610;13.468;2022-07-05T12:59:30;26.60;8.20
50560;DHT22;36510;52.610;13.468;2022-07-05T13:04:20;26.60;9.00
50560;DHT22;36510;52.610;13.468;2022-07-05T13:09:12;26.30;8.80
50560;DHT22;36510;52.610;13.468;2022-07-05T13:14:03;26.50;9.40
50560;DHT22;36510;52.610;13.468;2022-07-05T13:18:54;26.80;9.20
50560;DHT22;36510;52.610;13.468;2022-07-05T13:23:45;27.00;7.90
50560;DHT22;36510;52.610;13.468;2022-07-05T13:28:35;26.60;8.20
50560;DHT22;36510;52.610;13.468;2022-07-05T13:33:26;26.60;9.30
50560;DHT22;36510;52.610;13.468;2022-07-05T13:38:16;26.50;8.80
50560;DHT22;36510;52.610;13.468;2022-07-05T13:43:07;26.40;9.30
50560;DHT22;36510;52.610;13.468;2022-07-05T13:47:58;26.40;9.40
50560;DHT22;36510;52.610;13.468;2022-07-05T13:52:48;26.40;9.70
50560;DHT22;36510;52.610;13.468;2022-07-05T13:57:39;26.30;9.60
50560;DHT22;36510;52.610;13.468;2022-07-05T14:02:29;26.20;11.10
50560;DHT22;36510;52.610;13.468;2022-07-05T14:07:20;26.30;10.10
50560;DHT22;36510;52.610;13.468;2022-07-05T14:12:10;26.40;9.00
50560;DHT22;36510;52.610;13.468;2022-07-05T14:17:01;26.30;8.40
50560;DHT22;36510;52.610;13.468;2022-07-05T14:21:51;26.30;9.70
50560;DHT22;36510;52.610;13.468;2022-07-05T14:26:42;26.30;9.60
50560;DHT22;36510;52.610;13.468;2022-07-05T14:31:32;26.30;10.20
50560;DHT22;36510;52.610;13.468;2022-07-05T14:36:23;26.30;9.60
50560;DHT22;36510;52.610;13.468;2022-07-05T14:41:13;26.40;9.30
50560;DHT22;36510;52.610;13.468;2022-07-05T14:46:04;26.30;9.60
50560;DHT22;36510;52.610;13.468;2022-07-05T14:50:58;26.30;8.50
50560;DHT22;36510;52.610;13.468;2022-07-05T14:55:48;26.40;9.70
50560;DHT22;36510;52.610;13.468;2022-07-05T15:00:39;26.10;9.00
50560;DHT22;36510;52.610;13.468;2022-07-05T15:05:30;26.20;9.60
50560;DHT22;36510;52.610;13.468;2022-07-05T15:10:21;26.00;9.50
50560;DHT22;36510;52.610;13.468;2022-07-05T15:15:11;25.90;9.40
50560;DHT22;36510;52.610;13.468;2022-07-05T15:20:02;25.70;9.30
50560;DHT22;36510;52.610;13.468;2022-07-05T15:24:53;25.70;10.60
50560;DHT22;36510;52.610;13.468;2022-07-05T15:29:44;25.70;10.60
50560;DHT22;36510;52.610;13.468;2022-07-05T15:34:35;25.70;10.00
50560;DHT22;36510;52.610;13.468;2022-07-05T15:39:25;25.60;10.80
50560;DHT22;36510;52.610;13.468;2022-07-05T15:44:17;25.70;10.10
50560;DHT22;36510;52.610;13.468;2022-07-05T15:49:07;25.60;11.10
50560;DHT22;36510;52.610;13.468;2022-07-05T15:54:03;25.50;9.20
50560;DHT22;36510;52.610;13.468;2022-07-05T15:58:54;25.50;10.00
50560;DHT22;36510;52.610;13.468;2022-07-05T16:03:44;25.50;10.00
50560;DHT22;36510;52.610;13.468;2022-07-05T16:08:37;25.50;9.50
50560;DHT22;36510;52.610;13.468;2022-07-05T16:13:28;25.50;9.30
50560;DHT22;36510;52.610;13.468;2022-07-05T16:18:21;25.60;9.70
50560;DHT22;36510;52.610;13.468;2022-07-05T16:23:14;25.50;9.20
50560;DHT22;36510;52.610;13.468;2022-07-05T16:28:04;25.30;9.10
50560;DHT22;36510;52.610;13.468;2022-07-05T16:32:55;25.30;9.20
50560;DHT22;36510;52.610;13.468;2022-07-05T16:37:49;25.30;8.90
50560;DHT22;36510;52.610;13.468;2022-07-05T16:42:40;25.20;9.10
50560;DHT22;36510;52.610;13.468;2022-07-05T16:47:30;25.10;9.40
50560;DHT22;36510;52.610;13.468;2022-07-05T16:52:21;25.10;9.10
50560;DHT22;36510;52.610;13.468;2022-07-05T16:57:11;25.20;8.30
50560;DHT22;36510;52.610;13.468;2022-07-05T17:02:02;25.20;9.10
50560;DHT22;36510;52.610;13.468;2022-07-05T17:06:54;25.10;9.10
50560;DHT22;36510;52.610;13.468;2022-07-05T17:11:44;25.00;9.00
50560;DHT22;36510;52.610;13.468;2022-07-05T17:16:35;25.00;8.20
50560;DHT22;36510;52.610;13.468;2022-07-05T17:21:25;25.00;8.20
50560;DHT22;36510;52.610;13.468;2022-07-05T17:26:18;24.90;7.50
50560;DHT22;36510;52.610;13.468;2022-07-05T17:31:09;24.90;9.00
50560;DHT22;36510;52.610;13.468;2022-07-05T17:36:00;24.90;7.80
50560;DHT22;36510;52.610;13.468;2022-07-05T17:40:50;24.90;8.20
50560;DHT22;36510;52.610;13.468;2022-07-05T17:45:40;24.90;8.00
50560;DHT22;36510;52.610;13.468;2022-07-05T17:50:31;24.80;7.60
50560;DHT22;36510;52.610;13.468;2022-07-05T17:55:24;24.70;6.80
50560;DHT22;36510;52.610;13.468;2022-07-05T18:00:18;24.80;7.70
50560;DHT22;36510;52.610;13.468;2022-07-05T18:05:08;24.80;7.80
50560;DHT22;36510;52.610;13.468;2022-07-05T18:09:59;24.80;8.20
50560;DHT22;36510;52.610;13.468;2022-07-05T18:14:49;24.60;7.40
50560;DHT22;36510;52.610;13.468;2022-07-05T18:19:40;24.60;7.90
50560;DHT22;36510;52.610;13.468;2022-07-05T18:24:30;24.60;8.50
50560;DHT22;36510;52.610;13.468;2022-07-05T18:29:41;24.40;7.90
50560;DHT22;36510;52.610;13.468;2022-07-05T18:34:32;24.50;7.70
50560;DHT22;36510;52.610;13.468;2022-07-05T18:39:22;24.50;7.90
50560;DHT22;36510;52.610;13.468;2022-07-05T18:44:13;24.40;7.70
50560;DHT22;36510;52.610;13.468;2022-07-05T18:49:04;24.40;7.90
50560;DHT22;36510;52.610;13.468;2022-07-05T18:53:55;24.50;8.20
50560;DHT22;36510;52.610;13.468;2022-07-05T18:58:52;24.40;8.60
50560;DHT22;36510;52.610;13.468;2022-07-05T19:03:44;24.30;8.60
50560;DHT22;36510;52.610;13.468;2022-07-05T19:08:34;24.30;8.60
50560;DHT22;36510;52.610;13.468;2022-07-05T19:13:57;24.20;9.30
50560;DHT22;36510;52.610;13.468;2022-07-05T19:18:48;24.20;8.80
50560;DHT22;36510;52.610;13.468;2022-07-05T19:23:38;24.20;9.60
50560;DHT22;36510;52.610;13.468;2022-07-05T19:28:29;24.10;10.00
50560;DHT22;36510;52.610;13.468;2022-07-05T19:33:19;24.00;10.40
50560;DHT22;36510;52.610;13.468;2022-07-05T19:38:13;23.90;10.90
50560;DHT22;36510;52.610;13.468;2022-07-05T19:43:04;23.80;11.50
50560;DHT22;36510;52.610;13.468;2022-07-05T19:47:55;23.70;12.10
50560;DHT22;36510;52.610;13.468;2022-07-05T19:52:45;23.50;12.20
50560;DHT22;36510;52.610;13.468;2022-07-05T19:57:36;23.40;13.10
50560;DHT22;36510;52.610;13.468;2022-07-05T20:02:27;23.30;14.80
50560;DHT22;36510;52.610;13.468;2022-07-05T20:07:18;23.20;21.20
50560;DHT22;36510;52.610;13.468;2022-07-05T20:12:09;23.10;22.40
50560;DHT22;36510;52.610;13.468;2022-07-05T20:17:00;22.90;19.70
50560;DHT22;36510;52.610;13.468;2022-07-05T20:21:50;22.70;22.50
50560;DHT22;36510;52.610;13.468;2022-07-05T20:26:41;22.50;22.40
50560;DHT22;36510;52.610;13.468;2022-07-05T20:31:32;22.30;23.10
50560;DHT22;36510;52.610;13.468;2022-07-05T20:36:23;22.10;22.50
50560;DHT22;36510;52.610;13.468;2022-07-05T20:41:13;22.00;24.30
50560;DHT22;36510;52.610;13.468;2022-07-05T20:46:04;21.80;23.00
50560;DHT22;36510;52.610;13.468;2022-07-05T20:50:54;21.70;20.50
50560;DHT22;36510;52.610;13.468;2022-07-05T20:55:45;21.60;23.00
50560;DHT22;36510;52.610;13.468;2022-07-05T21:00:36;21.50;21.30
50560;DHT22;36510;52.610;13.468;2022-07-05T21:05:26;21.40;21.70
50560;DHT22;36510;52.610;13.468;2022-07-05T21:10:17;21.40;24.10
50560;DHT22;36510;52.610;13.468;2022-07-05T21:15:08;21.30;24.20
50560;DHT22;36510;52.610;13.468;2022-07-05T21:19:58;21.30;24.20
50560;DHT22;36510;52.610;13.468;2022-07-05T21:24:49;21.20;23.40
50560;DHT22;36510;52.610;13.468;2022-07-05T21:29:40;21.10;23.70
50560;DHT22;36510;52.610;13.468;2022-07-05T21:34:30;21.00;23.40
50560;DHT22;36510;52.610;13.468;2022-07-05T21:39:21;20.90;24.40
50560;DHT22;36510;52.610;13.468;2022-07-05T21:44:13;20.90;24.70
50560;DHT22;36510;52.610;13.468;2022-07-05T21:49:07;20.90;22.70
50560;DHT22;36510;52.610;13.468;2022-07-05T21:53:57;21.00;23.30
50560;DHT22;36510;52.610;13.468;2022-07-05T21:58:48;21.10;22.90
50560;DHT22;36510;52.610;13.468;2022-07-05T22:03:57;21.10;21.70
50560;DHT22;36510;52.610;13.468;2022-07-05T22:09:06;21.00;20.80
50560;DHT22;36510;52.610;13.468;2022-07-05T22:13:56;21.00;20.80
50560;DHT22;36510;52.610;13.468;2022-07-05T22:18:47;20.80;19.00
50560;DHT22;36510;52.610;13.468;2022-07-05T22:23:37;20.70;18.90
50560;DHT22;36510;52.610;13.468;2022-07-05T22:28:28;20.80;19.50
50560;DHT22;36510;52.610;13.468;2022-07-05T22:33:18;20.80;19.30
50560;DHT22;36510;52.610;13.468;2022-07-05T22:38:09;20.80;19.00
50560;DHT22;36510;52.610;13.468;2022-07-05T22:42:59;20.70;19.30
50560;DHT22;36510;52.610;13.468;2022-07-05T22:47:50;20.70;20.90
50560;DHT22;36510;52.610;13.468;2022-07-05T22:52:40;20.70;19.90
50560;DHT22;36510;52.610;13.468;2022-07-05T22:57:31;20.80;20.10
50560;DHT22;36510;52.610;13.468;2022-07-05T23:02:21;20.80;20.60
50560;DHT22;36510;52.610;13.468;2022-07-05T23:07:12;20.70;20.80
50560;DHT22;36510;52.610;13.468;2022-07-05T23:12:02;20.50;20.70
50560;DHT22;36510;52.610;13.468;2022-07-05T23:16:53;20.60;21.10
50560;DHT22;36510;52.610;13.468;2022-07-05T23:21:43;20.50;21.50
50560;DHT22;36510;52.610;13.468;2022-07-05T23:26:34;20.50;21.30
50560;DHT22;36510;52.610;13.468;2022-07-05T23:31:24;20.50;22.20
50560;DHT22;36510;52.610;13.468;2022-07-05T23:36:16;20.40;22.70
50560;DHT22;36510;52.610;13.468;2022-07-05T23:41:06;20.30;22.80
50560;DHT22;36510;52.610;13.468;2022-07-05T23:45:58;20.30;23.20
50560;DHT22;36510;52.610;13.468;2022-07-05T23:50:48;20.20;23.50
50560;DHT22;36510;52.610;13.468;2022-07-05T23:55:39;20.10;23.20
